Time;durP1;ratioP1;P1;durP2;ratioP2;P2;SDS_P1;SDS_P2;PMS_P1;PMS_P2;Temp;Humidity;BMP_temperature;BMP_pressure;BME280_temperature;BME280_humidity;BME280_pressure;Samples;Min_cycle;Max_cycle;Signal;HPM_P1;HPM_P2
2020/12/15 00:00:59;;;;;;;;;;;;;;;7.58;81.34;98281.31;5097680;27;19950;-79
2020/12/15 00:03:24;;;;;;;;;;;;;;;7.54;82.66;98285.69;5114639;27;19919;-79
2020/12/15 00:05:51;;;;;;;;;;;;;;;7.54;82.31;98285.69;5115030;27;20002;-79
2020/12/15 00:08:17;;;;;;;;;;;;;;;7.54;81.28;98280.56;5114317;27;19915;-79
2020/12/15 00:10:44;;;;;;;;;;;;;;;7.54;80.92;98284.84;5114927;27;19927;-79
2020/12/15 00:13:10;;;;;;;;;;;;;;;7.57;80.89;98284.75;5114814;27;19915;-79
2020/12/15 00:15:36;;;;;;;;;;;;;;;7.52;81.51;98266.97;5131570;27;19924;-78
2020/12/15 00:18:01;;;;;;;;;;;;;;;7.49;81.00;98269.63;5097736;27;19976;-79
2020/12/15 00:20:26;;;;;;;;;;;;;;;7.50;79.98;98258.53;5115441;27;20018;-78
2020/12/15 00:22:51;;;;;;;;;;;;;;;7.55;80.58;98273.75;5114643;27;20352;-79
2020/12/15 00:25:17;;;;;;;;;;;;;;;7.57;81.50;98291.59;5132327;27;20002;-79
2020/12/15 00:27:42;;;;;;;;;;;;;;;7.63;79.99;98294.00;5114214;27;19941;-79
2020/12/15 00:30:08;;;;;;;;;;;;;;;7.70;79.92;98287.78;5115634;27;19947;-79
2020/12/15 00:32:33;;;;;;;;;;;;;;;7.71;77.84;98295.44;5114438;27;19921;-79
2020/12/15 00:34:58;;;;;;;;;;;;;;;7.68;80.53;98302.38;5114671;27;19911;-79
2020/12/15 00:37:24;;;;;;;;;;;;;;;7.72;80.83;98293.69;5132412;27;20359;-79
2020/12/15 00:39:49;;;;;;;;;;;;;;;7.69;81.37;98291.25;5097383;27;20011;-79
2020/12/15 00:42:14;;;;;;;;;;;;;;;7.80;81.86;98299.44;5131526;27;20795;-79
2020/12/15 00:44:39;;;;;;;;;;;;;;;7.75;79.38;98286.75;5131330;27;19938;-79
2020/12/15 00:47:05;;;;;;;;;;;;;;;7.80;78.73;98278.94;5131936;27;19919;-79
2020/12/15 00:49:30;;;;;;;;;;;;;;;7.87;78.74;98275.28;5114431;27;19976;-79
2020/12/15 00:51:55;;;;;;;;;;;;;;;7.85;78.95;98287.28;5113766;27;19915;-79
2020/12/15 00:54:21;;;;;;;;;;;;;;;7.88;78.64;98289.75;5132143;27;20374;-79
2020/12/15 00:56:46;;;;;;;;;;;;;;;8.02;78.65;98280.78;5114553;27;19955;-79
2020/12/15 00:59:11;;;;;;;;;;;;;;;8.08;76.91;98288.28;5133106;27;20004;-79
2020/12/15 01:01:37;;;;;;;;;;;;;;;8.08;78.15;98290.84;5114420;27;19915;-79
2020/12/15 01:04:02;;;;;;;;;;;;;;;8.01;81.24;98286.81;5115182;27;19920;-78
2020/12/15 01:06:27;;;;;;;;;;;;;;;7.88;79.37;98294.03;5114145;27;19912;-79
2020/12/15 01:08:53;;;;;;;;;;;;;;;7.81;79.25;98283.16;5114803;27;19958;-78
2020/12/15 01:11:19;;;;;;;;;;;;;;;7.79;81.63;98290.03;5132525;27;19923;-79
2020/12/15 01:13:44;;;;;;;;;;;;;;;7.88;80.55;98283.78;5113942;27;19922;-79
2020/12/15 01:16:10;;;;;;;;;;;;;;;7.86;79.76;98285.56;5113883;27;20313;-79
2020/12/15 01:18:35;;;;;;;;;;;;;;;7.86;78.25;98285.56;5114169;27;19919;-79
2020/12/15 01:21:01;;;;;;;;;;;;;;;7.83;78.22;98286.50;5113886;27;19912;-79
2020/12/15 01:23:27;;;;;;;;;;;;;;;7.88;78.86;98294.88;5096983;27;19919;-78
2020/12/15 01:25:53;;;;;;;;;;;;;;;7.85;79.56;98300.13;5131831;27;19916;-79
2020/12/15 01:28:18;;;;;;;;;;;;;;;7.99;77.87;98298.84;5095748;27;19926;-79
2020/12/15 01:30:44;;;;;;;;;;;;;;;7.91;78.89;98296.50;5132284;27;19915;-79
2020/12/15 01:33:09;;;;;;;;;;;;;;;7.86;79.66;98294.09;5113619;27;20002;-79
2020/12/15 01:35:34;;;;;;;;;;;;;;;7.88;77.21;98292.31;5113383;27;20400;-79
2020/12/15 01:37:59;;;;;;;;;;;;;;;7.84;80.11;98288.16;5113836;27;19911;-79
2020/12/15 01:40:25;;;;;;;;;;;;;;;7.88;79.27;98292.31;5131679;27;20005;-79
2020/12/15 01:42:50;;;;;;;;;;;;;;;7.88;77.67;98284.63;5095810;27;20280;-79
2020/12/15 01:45:15;;;;;;;;;;;;;;;7.82;80.07;98299.34;5113506;27;20380;-79
2020/12/15 01:47:41;;;;;;;;;;;;;;;7.87;78.09;98295.78;5113057;27;19927;-79
2020/12/15 01:50:06;;;;;;;;;;;;;;;7.87;80.15;98293.22;5113817;27;19946;-79
2020/12/15 01:52:32;;;;;;;;;;;;;;;7.91;79.33;98289.66;5113035;27;19919;-79
2020/12/15 01:54:57;;;;;;;;;;;;;;;7.93;78.85;98282.75;5096274;27;19946;-79
2020/12/15 01:57:23;;;;;;;;;;;;;;;7.90;79.81;98293.09;5095767;27;20368;-79
2020/12/15 01:59:48;;;;;;;;;;;;;;;7.92;80.00;98285.38;5112575;27;19922;-79
2020/12/15 02:02:14;;;;;;;;;;;;;;;7.88;79.85;98284.63;5096651;27;19915;-79
2020/12/15 02:04:39;;;;;;;;;;;;;;;7.92;80.43;98280.25;5112888;27;19931;-78
2020/12/15 02:07:04;;;;;;;;;;;;;;;7.87;80.80;98275.28;5131755;27;20099;-79
2020/12/15 02:09:30;;;;;;;;;;;;;;;7.94;79.69;98275.91;5112761;27;19915;-79
2020/12/15 02:11:55;;;;;;;;;;;;;;;7.91;81.02;98273.44;5120730;27;19919;-78
2020/12/15 02:14:20;;;;;;;;;;;;;;;7.91;80.32;98274.28;5095371;27;20021;-79
2020/12/15 02:16:49;;;;;;;;;;;;;;;7.94;79.88;98263.91;5113161;28;19954;-79
2020/12/15 02:19:15;;;;;;;;;;;;;;;7.90;80.35;98267.47;5096003;28;19926;-78
2020/12/15 02:21:54;;;;;;;;;;;;;;;7.89;81.03;98257.25;5112500;28;19924;-79
2020/12/15 02:24:19;;;;;;;;;;;;;;;7.82;83.13;98256.63;5112976;28;19930;-79
2020/12/15 02:26:45;;;;;;;;;;;;;;;7.82;83.41;98259.19;5113030;28;19919;-79
2020/12/15 02:29:10;;;;;;;;;;;;;;;7.83;82.74;98255.75;5113459;28;20632;-79
2020/12/15 02:31:36;;;;;;;;;;;;;;;7.92;83.35;98265.69;5131614;28;20001;-79
2020/12/15 02:34:01;;;;;;;;;;;;;;;7.94;83.22;98263.91;5113045;28;20002;-80
2020/12/15 02:36:27;;;;;;;;;;;;;;;7.93;84.79;98269.91;5112880;28;19915;-78
2020/12/15 02:38:53;;;;;;;;;;;;;;;7.88;84.77;98261.56;5116045;27;19934;-80
2020/12/15 02:41:18;;;;;;;;;;;;;;;7.83;86.17;98270.28;5134999;27;20387;-80
2020/12/15 02:43:43;;;;;;;;;;;;;;;7.81;86.43;98270.34;5117288;27;19931;-80
2020/12/15 02:46:09;;;;;;;;;;;;;;;7.76;87.28;98282.47;5085058;28;20140;-80
2020/12/15 02:48:34;;;;;;;;;;;;;;;7.68;87.87;98281.84;5080591;28;20402;-81
2020/12/15 02:50:59;;;;;;;;;;;;;;;7.67;88.49;98280.19;5081238;28;19916;-81
2020/12/15 02:53:25;;;;;;;;;;;;;;;7.59;89.35;98282.97;5080259;28;19949;-81
2020/12/15 02:55:50;;;;;;;;;;;;;;;7.57;89.10;98269.38;5081161;28;19916;-80
2020/12/15 02:58:15;;;;;;;;;;;;;;;7.54;90.12;98269.50;5099717;28;20300;-81
2020/12/15 03:00:41;;;;;;;;;;;;;;;7.52;90.24;98269.53;5099031;28;19920;-81
2020/12/15 03:03:06;;;;;;;;;;;;;;;7.56;90.46;98282.25;5115344;28;19916;-80
2020/12/15 03:05:31;;;;;;;;;;;;;;;7.56;89.94;98272.84;5114166;28;19981;-81
2020/12/15 03:07:57;;;;;;;;;;;;;;;7.55;90.28;98268.63;5115028;28;19920;-81
2020/12/15 03:10:22;;;;;;;;;;;;;;;7.54;90.50;98275.44;5115730;28;19962;-81
2020/12/15 03:12:47;;;;;;;;;;;;;;;7.53;90.65;98281.47;5098578;28;20393;-80
2020/12/15 03:15:13;;;;;;;;;;;;;;;7.56;90.95;98282.25;5097816;28;20277;-80
2020/12/15 03:17:39;;;;;;;;;;;;;;;7.63;90.52;98273.50;5097954;28;19919;-81
2020/12/15 03:20:04;;;;;;;;;;;;;;;7.56;91.12;98277.13;5097034;28;19922;-81
2020/12/15 03:22:29;;;;;;;;;;;;;;;7.56;90.83;98272.84;5079674;28;20292;-81
2020/12/15 03:24:55;;;;;;;;;;;;;;;7.61;90.82;98282.94;5096795;28;19920;-80
2020/12/15 03:27:20;;;;;;;;;;;;;;;7.62;90.97;98285.47;5096448;28;19920;-80
2020/12/15 03:29:45;;;;;;;;;;;;;;;7.45;91.63;98282.59;5079244;28;19966;-79
2020/12/15 03:32:10;;;;;;;;;;;;;;;7.44;91.74;98286.03;5095993;28;19965;-80
2020/12/15 03:34:36;;;;;;;;;;;;;;;7.41;91.81;98278.44;5095512;28;19998;-79
2020/12/15 03:37:01;;;;;;;;;;;;;;;7.45;92.33;98282.59;5079040;28;19920;-79
2020/12/15 03:39:27;;;;;;;;;;;;;;;7.42;92.59;98291.22;5079250;28;19920;-80
2020/12/15 03:41:54;;;;;;;;;;;;;;;7.39;92.80;98295.56;5079238;28;19919;-80
2020/12/15 03:44:20;;;;;;;;;;;;;;;7.36;92.50;98293.94;5097196;28;20184;-80
2020/12/15 03:46:45;;;;;;;;;;;;;;;7.37;93.42;98303.31;5100616;27;19931;-80
2020/12/15 03:49:10;;;;;;;;;;;;;;;7.24;93.31;98299.44;5116761;28;19915;-80
2020/12/15 03:51:36;;;;;;;;;;;;;;;7.22;93.78;98307.16;5118677;27;19916;-81
2020/12/15 03:54:01;;;;;;;;;;;;;;;7.28;93.87;98303.59;5137031;27;19915;-80
2020/12/15 03:56:27;;;;;;;;;;;;;;;7.29;93.65;98312.94;5118445;27;19926;-80
2020/12/15 03:58:53;;;;;;;;;;;;;;;7.29;94.01;98312.94;5118665;27;19926;-80
2020/12/15 04:01:18;;;;;;;;;;;;;;;7.21;94.61;98309.78;5118744;27;20466;-80
2020/12/15 04:03:43;;;;;;;;;;;;;;;7.13;94.66;98310.84;5136751;27;20292;-80
2020/12/15 04:06:09;;;;;;;;;;;;;;;7.21;94.33;98313.19;5119659;27;20405;-80
2020/12/15 04:08:34;;;;;;;;;;;;;;;7.16;95.01;98320.16;5136330;27;19971;-80
2020/12/15 04:10:59;;;;;;;;;;;;;;;7.17;95.36;98314.16;5118480;27;20001;-80
2020/12/15 04:13:25;;;;;;;;;;;;;;;7.18;95.43;98310.69;5136614;27;19930;-80
2020/12/15 04:15:50;;;;;;;;;;;;;;;7.15;95.63;98313.34;5117937;27;20330;-80
2020/12/15 04:18:15;;;;;;;;;;;;;;;7.15;96.12;98308.22;5137284;27;20444;-81
2020/12/15 04:20:41;;;;;;;;;;;;;;;7.16;96.10;98314.19;5118603;27;19950;-80
2020/12/15 04:23:06;;;;;;;;;;;;;;;7.17;96.29;98316.72;5120040;27;19911;-81
2020/12/15 04:25:31;;;;;;;;;;;;;;;7.07;96.55;98313.59;5137546;27;20038;-80
2020/12/15 04:27:57;;;;;;;;;;;;;;;7.02;97.44;98317.16;5138117;27;19915;-81
2020/12/15 04:30:22;;;;;;;;;;;;;;;7.03;97.48;98312.00;5119236;27;20011;-80
2020/12/15 04:32:48;;;;;;;;;;;;;;;7.04;97.39;98317.94;5136215;27;19942;-80
2020/12/15 04:35:13;;;;;;;;;;;;;;;6.90;98.08;98308.09;5136437;27;19919;-81
2020/12/15 04:37:39;;;;;;;;;;;;;;;6.97;97.25;98316.44;5117175;27;19916;-79
2020/12/15 04:40:05;;;;;;;;;;;;;;;6.97;98.31;98304.47;5118856;27;19923;-81
2020/12/15 04:42:30;;;;;;;;;;;;;;;6.85;99.14;98304.84;5099140;27;19923;-82
2020/12/15 04:44:55;;;;;;;;;;;;;;;6.91;98.99;98299.53;5095310;27;20372;-82
2020/12/15 04:47:34;;;;;;;;;;;;;;;6.80;99.31;98307.53;5108946;27;19912;-81
2020/12/15 04:50:03;;;;;;;;;;;;;;;6.85;99.25;98303.13;5106569;27;19934;-79
2020/12/15 04:52:47;;;;;;;;;;;;;;;6.89;99.54;98298.75;5108515;27;19919;-81
2020/12/15 04:55:12;;;;;;;;;;;;;;;6.82;99.69;98299.78;5124785;27;19922;-81
2020/12/15 04:57:38;;;;;;;;;;;;;;;6.75;99.85;98305.97;5121872;27;19920;-82
2020/12/15 05:00:04;;;;;;;;;;;;;;;6.76;99.87;98294.88;5103474;27;19921;-81
2020/12/15 05:02:29;;;;;;;;;;;;;;;6.74;100.00;98296.63;5103880;27;19963;-81
2020/12/15 05:04:54;;;;;;;;;;;;;;;6.70;99.93;98296.72;5121625;27;20435;-80
2020/12/15 05:07:20;;;;;;;;;;;;;;;6.80;100.00;98296.47;5102304;27;19927;-80
2020/12/15 05:09:46;;;;;;;;;;;;;;;6.70;99.83;98306.09;5107207;27;20266;-81
2020/12/15 05:12:12;;;;;;;;;;;;;;;6.77;99.47;98301.66;5104857;27;20212;-81
2020/12/15 05:14:37;;;;;;;;;;;;;;;6.80;99.42;98306.69;5089004;27;19915;-79
2020/12/15 05:17:02;;;;;;;;;;;;;;;6.79;99.68;98300.72;5105606;27;19915;-80
2020/12/15 05:19:28;;;;;;;;;;;;;;;6.77;100.00;98299.09;5122362;27;20261;-80
2020/12/15 05:22:00;;;;;;;;;;;;;;;6.78;100.00;98298.22;5121434;27;19958;-81
2020/12/15 05:24:28;;;;;;;;;;;;;;;6.80;100.00;98299.03;5105520;27;19924;-81
2020/12/15 05:27:01;;;;;;;;;;;;;;;6.80;100.00;98304.13;5108374;27;19915;-80
2020/12/15 05:29:27;;;;;;;;;;;;;;;6.87;100.00;98308.19;5105676;28;19943;-80
2020/12/15 05:31:53;;;;;;;;;;;;;;;6.83;100.00;98304.03;5108000;27;20386;-80
2020/12/15 05:34:48;;;;;;;;;;;;;;;6.85;100.00;98309.97;5104446;27;19953;-79
2020/12/15 05:37:14;;;;;;;;;;;;;;;6.82;100.00;98308.34;5058761;27;20380;-81
2020/12/15 05:39:39;;;;;;;;;;;;;;;6.84;99.53;98315.94;5089806;27;19915;-80
2020/12/15 05:42:05;;;;;;;;;;;;;;;6.87;99.81;98318.44;5091023;27;19924;-81
2020/12/15 05:44:31;;;;;;;;;;;;;;;6.81;100.00;98324.56;5105081;27;19926;-80
2020/12/15 05:47:00;;;;;;;;;;;;;;;6.88;100.00;98314.97;5099040;27;19919;-80
2020/12/15 05:49:27;;;;;;;;;;;;;;;6.87;100.00;98324.38;5116135;27;19954;-81
2020/12/15 05:51:52;;;;;;;;;;;;;;;6.94;99.19;98316.53;5114449;27;20380;-81
2020/12/15 05:54:17;;;;;;;;;;;;;;;6.97;99.85;98317.28;5095534;27;20017;-80
2020/12/15 05:56:43;;;;;;;;;;;;;;;6.98;99.83;98316.41;5098560;27;19968;-81
2020/12/15 05:59:18;;;;;;;;;;;;;;;6.95;99.93;98331.00;5116822;27;20022;-81
2020/12/15 06:01:47;;;;;;;;;;;;;;;7.00;99.36;98316.34;5097998;27;19965;-81
2020/12/15 06:04:13;;;;;;;;;;;;;;;7.06;100.00;98324.69;5131253;27;20811;-80
2020/12/15 06:06:39;;;;;;;;;;;;;;;7.07;99.45;98320.41;5112964;27;19923;-80
2020/12/15 06:09:04;;;;;;;;;;;;;;;7.01;100.00;98315.47;5114051;28;19919;-79
2020/12/15 06:11:32;;;;;;;;;;;;;;;7.11;100.00;98314.31;5097825;27;19912;-80
2020/12/15 06:13:57;;;;;;;;;;;;;;;7.11;99.36;98312.59;5114371;28;19919;-80
2020/12/15 06:16:22;;;;;;;;;;;;;;;7.11;100.00;98314.31;5114723;28;19938;-80
2020/12/15 06:18:48;;;;;;;;;;;;;;;7.07;100.00;98316.16;5114808;28;19912;-81
2020/12/15 06:21:13;;;;;;;;;;;;;;;7.11;100.00;98316.88;5098003;28;20503;-79
2020/12/15 06:23:38;;;;;;;;;;;;;;;7.09;100.00;98304.16;5124570;28;19912;-80
2020/12/15 06:26:04;;;;;;;;;;;;;;;7.16;99.16;98314.19;5110758;28;19919;-78
2020/12/15 06:28:32;;;;;;;;;;;;;;;7.11;99.91;98319.44;5128150;28;20289;-79
2020/12/15 06:31:01;;;;;;;;;;;;;;;7.05;100.00;98322.19;5119123;28;19986;-87
2020/12/15 06:33:33;;;;;;;;;;;;;;;7.10;99.74;98328.84;5134913;28;19922;-80
2020/12/15 06:35:58;;;;;;;;;;;;;;;7.05;100.00;98323.03;5114972;28;20391;-80
2020/12/15 06:38:24;;;;;;;;;;;;;;;7.02;100.00;98328.22;5095565;28;19911;-79
2020/12/15 06:40:49;;;;;;;;;;;;;;;7.12;100.00;98329.66;5096722;28;19976;-80
2020/12/15 06:43:29;;;;;;;;;;;;;;;7.05;100.00;98323.03;5116636;28;19966;-79
2020/12/15 06:46:04;;;;;;;;;;;;;;;7.08;100.00;98329.78;5096405;28;19923;-81
2020/12/15 06:48:33;;;;;;;;;;;;;;;7.13;99.87;98330.47;5094621;28;19926;-80
2020/12/15 06:50:58;;;;;;;;;;;;;;;7.15;100.00;98331.28;5084600;28;19915;-80
2020/12/15 06:53:23;;;;;;;;;;;;;;;7.15;100.00;98322.78;5111661;28;19937;-80
2020/12/15 06:56:01;;;;;;;;;;;;;;;7.12;99.92;98334.78;5097251;28;19955;-80
2020/12/15 06:58:26;;;;;;;;;;;;;;;7.18;99.04;98335.47;5127163;28;19932;-80
2020/12/15 07:00:51;;;;;;;;;;;;;;;7.16;99.77;98327.00;5094441;28;20303;-81
2020/12/15 07:03:18;;;;;;;;;;;;;;;7.13;99.45;98321.06;5111926;28;19962;-80
2020/12/15 07:05:43;;;;;;;;;;;;;;;7.20;99.76;98319.16;5112768;28;19916;-80
2020/12/15 07:08:09;;;;;;;;;;;;;;;7.22;100.00;98324.25;5111681;28;19961;-79
2020/12/15 07:10:34;;;;;;;;;;;;;;;7.18;99.61;98327.78;5112014;28;20053;-81
2020/12/15 07:13:00;;;;;;;;;;;;;;;7.16;100.00;98329.56;5113371;28;19960;-80
2020/12/15 07:15:26;;;;;;;;;;;;;;;7.27;98.21;98333.47;5111939;28;19919;-80
2020/12/15 07:17:52;;;;;;;;;;;;;;;7.35;96.93;98337.56;5112706;28;19926;-80
2020/12/15 07:20:18;;;;;;;;;;;;;;;7.24;98.46;98337.88;5098804;28;19994;-80
2020/12/15 07:22:43;;;;;;;;;;;;;;;7.39;97.88;98341.69;5099235;28;19968;-79
2020/12/15 07:25:09;;;;;;;;;;;;;;;7.40;99.27;98349.31;5113751;27;19919;-79
2020/12/15 07:27:35;;;;;;;;;;;;;;;7.30;99.00;98345.38;5136548;27;19919;-80
2020/12/15 07:30:00;;;;;;;;;;;;;;;7.12;100.00;98352.69;5101448;27;20356;-79
2020/12/15 07:32:28;;;;;;;;;;;;;;;7.30;100.00;98358.19;5118897;27;20121;-80
2020/12/15 07:35:01;;;;;;;;;;;;;;;7.31;100.00;98354.72;5101249;27;19926;-80
2020/12/15 07:37:27;;;;;;;;;;;;;;;7.36;99.43;98362.28;5118494;27;20327;-80
2020/12/15 07:39:53;;;;;;;;;;;;;;;7.18;99.15;98355.97;5098116;27;19926;-80
2020/12/15 07:42:19;;;;;;;;;;;;;;;7.13;99.80;98356.91;5114396;27;19919;-80
2020/12/15 07:44:44;;;;;;;;;;;;;;;7.13;100.00;98363.78;5113562;27;19923;-80
2020/12/15 07:47:09;;;;;;;;;;;;;;;7.17;99.85;98359.41;5115621;27;20407;-80
2020/12/15 07:49:36;;;;;;;;;;;;;;;7.24;100.00;98359.19;5099261;27;19995;-80
2020/12/15 07:52:01;;;;;;;;;;;;;;;7.33;99.69;98363.22;5117110;27;20052;-80
2020/12/15 07:54:26;;;;;;;;;;;;;;;7.19;100.00;98363.59;5133763;27;19938;-80
2020/12/15 07:56:52;;;;;;;;;;;;;;;7.29;99.56;98370.13;5099394;27;19966;-80
2020/12/15 07:59:18;;;;;;;;;;;;;;;7.27;99.97;98365.94;5117027;27;19915;-80
2020/12/15 08:01:43;;;;;;;;;;;;;;;7.26;99.33;98362.53;5099120;27;20370;-80
2020/12/15 08:04:13;;;;;;;;;;;;;;;7.18;97.85;98363.63;5116367;27;19916;-80
2020/12/15 08:06:39;;;;;;;;;;;;;;;7.29;99.23;98366.72;5098099;27;19958;-80
2020/12/15 08:09:05;;;;;;;;;;;;;;;7.35;99.95;98371.69;5115263;27;19976;-80
2020/12/15 08:11:31;;;;;;;;;;;;;;;7.34;99.71;98380.22;5114154;27;20019;-78
2020/12/15 08:13:56;;;;;;;;;;;;;;;7.40;97.93;98380.06;5098751;27;19958;-79
2020/12/15 08:16:21;;;;;;;;;;;;;;;7.30;99.32;98374.38;5098089;27;19920;-79
2020/12/15 08:18:48;;;;;;;;;;;;;;;7.29;100.00;98382.09;5114236;27;19915;-79
2020/12/15 08:21:14;;;;;;;;;;;;;;;7.28;99.56;98376.16;5096522;27;19916;-80
2020/12/15 08:23:40;;;;;;;;;;;;;;;7.27;100.00;98378.75;5113317;27;19915;-79
2020/12/15 08:26:05;;;;;;;;;;;;;;;7.26;100.00;98377.06;5111686;27;20898;-80
2020/12/15 08:28:30;;;;;;;;;;;;;;;7.28;100.00;98376.16;5112835;27;20488;-79
2020/12/15 08:30:56;;;;;;;;;;;;;;;7.19;99.98;98383.25;5113886;27;19926;-81
2020/12/15 08:33:26;;;;;;;;;;;;;;;7.28;99.57;98383.00;5113146;27;19919;-82
2020/12/15 08:35:52;;;;;;;;;;;;;;;7.27;100.00;98388.97;5130837;27;19915;-79
2020/12/15 08:38:17;;;;;;;;;;;;;;;7.31;100.00;98388.84;5095877;27;19998;-78
2020/12/15 08:40:44;;;;;;;;;;;;;;;7.26;100.00;98395.84;5112464;27;19919;-81
2020/12/15 08:43:09;;;;;;;;;;;;;;;7.35;100.00;98401.59;5095416;27;19919;-82
2020/12/15 08:45:34;;;;;;;;;;;;;;;7.33;100.00;98396.50;5113149;27;19931;-80
2020/12/15 08:48:00;;;;;;;;;;;;;;;7.27;100.00;98399.22;5132711;27;20005;-79
2020/12/15 08:50:26;;;;;;;;;;;;;;;7.31;100.00;98411.06;5113474;27;19919;-80
2020/12/15 08:52:51;;;;;;;;;;;;;;;7.35;100.00;98402.44;5112366;27;19915;-79
2020/12/15 08:55:27;;;;;;;;;;;;;;;7.29;100.00;98402.59;5112904;27;19942;-80
2020/12/15 08:58:12;;;;;;;;;;;;;;;7.29;100.00;98407.72;5112565;27;19916;-78
2020/12/15 09:00:42;;;;;;;;;;;;;;;7.22;100.00;98411.34;5130860;27;19919;-80
2020/12/15 09:03:09;;;;;;;;;;;;;;;7.22;100.00;98403.66;5112965;27;20380;-80
2020/12/15 09:05:48;;;;;;;;;;;;;;;7.22;100.00;98411.34;5108300;27;19947;-81
2020/12/15 09:08:13;;;;;;;;;;;;;;;7.25;100.00;98411.22;5119209;27;19923;-82
2020/12/15 09:10:39;;;;;;;;;;;;;;;7.22;100.00;98431.81;5134522;27;19911;-80
2020/12/15 09:13:06;;;;;;;;;;;;;;;7.19;100.00;98422.50;5115426;27;19931;-80
2020/12/15 09:15:31;;;;;;;;;;;;;;;7.27;100.00;98425.66;5117387;27;19919;-80
2020/12/15 09:17:57;;;;;;;;;;;;;;;7.33;100.00;98428.06;5116588;27;19923;-80
2020/12/15 09:20:27;;;;;;;;;;;;;;;7.35;100.00;98424.66;5114216;27;19943;-80
2020/12/15 09:22:52;;;;;;;;;;;;;;;7.44;100.00;98422.66;5099443;27;19919;-78
2020/12/15 09:25:18;;;;;;;;;;;;;;;7.43;100.00;98415.84;5118608;27;19915;-80
2020/12/15 09:27:44;;;;;;;;;;;;;;;7.48;100.00;98418.25;5114079;27;20428;-80
2020/12/15 09:30:10;;;;;;;;;;;;;;;7.54;100.00;98428.34;5118118;27;19919;-80
2020/12/15 09:32:35;;;;;;;;;;;;;;;7.43;100.00;98420.13;5134841;27;19920;-79
2020/12/15 09:35:01;;;;;;;;;;;;;;;7.40;100.00;98418.50;5101675;27;20006;-80
2020/12/15 09:37:26;;;;;;;;;;;;;;;7.34;100.00;98423.78;5135260;27;19912;-79
2020/12/15 09:39:52;;;;;;;;;;;;;;;7.33;100.00;98424.69;5116897;27;19919;-79
2020/12/15 09:42:19;;;;;;;;;;;;;;;7.32;100.00;98422.97;5115270;27;19911;-79
2020/12/15 09:44:45;;;;;;;;;;;;;;;7.40;100.00;98417.66;5117178;27;19935;-79
2020/12/15 09:47:10;;;;;;;;;;;;;;;7.33;100.00;98424.69;5132922;27;19919;-79
2020/12/15 09:49:37;;;;;;;;;;;;;;;7.51;100.00;98429.28;5135894;27;19937;-79
2020/12/15 09:52:02;;;;;;;;;;;;;;;7.49;100.00;98425.09;5115721;27;19970;-78
2020/12/15 09:54:28;;;;;;;;;;;;;;;7.40;100.00;98426.19;5132881;27;19919;-79
2020/12/15 09:56:53;;;;;;;;;;;;;;;7.44;100.00;98432.91;5132266;27;20559;-79
2020/12/15 09:59:18;;;;;;;;;;;;;;;7.43;100.00;98420.97;5133709;27;19930;-79
2020/12/15 10:01:44;;;;;;;;;;;;;;;7.56;100.00;98410.38;5135354;27;19912;-79
2020/12/15 10:04:09;;;;;;;;;;;;;;;7.54;100.00;98418.09;5116786;27;20031;-79
2020/12/15 10:06:35;;;;;;;;;;;;;;;7.57;100.00;98428.25;5119239;27;19915;-79
2020/12/15 10:09:01;;;;;;;;;;;;;;;7.46;100.00;98414.94;5118766;27;20563;-79
2020/12/15 10:11:26;;;;;;;;;;;;;;;7.46;100.00;98415.75;5138040;27;20395;-78
2020/12/15 10:13:52;;;;;;;;;;;;;;;7.63;100.00;98422.13;5137064;27;19927;-78
2020/12/15 10:16:17;;;;;;;;;;;;;;;7.54;99.58;98421.50;5119180;27;19927;-79
2020/12/15 10:18:42;;;;;;;;;;;;;;;7.52;99.76;98420.69;5118970;28;19915;-79
2020/12/15 10:21:08;;;;;;;;;;;;;;;7.50;99.31;98425.06;5137719;28;19996;-79
2020/12/15 10:23:34;;;;;;;;;;;;;;;7.56;99.95;98420.63;5136591;28;19992;-79
2020/12/15 10:26:01;;;;;;;;;;;;;;;7.62;99.68;98420.41;5137516;28;19942;-79
2020/12/15 10:28:26;;;;;;;;;;;;;;;7.61;100.00;98417.03;5117582;28;19933;-78
2020/12/15 10:30:51;;;;;;;;;;;;;;;7.53;100.00;98419.00;5117157;28;19915;-79
2020/12/15 10:33:17;;;;;;;;;;;;;;;7.54;100.00;98403.56;5119027;28;19911;-79
2020/12/15 10:35:42;;;;;;;;;;;;;;;7.67;99.79;98408.34;5136693;28;19912;-79
2020/12/15 10:38:07;;;;;;;;;;;;;;;7.65;99.98;98420.34;5133036;28;20018;-78
2020/12/15 10:40:33;;;;;;;;;;;;;;;7.72;99.78;98414.16;5125556;28;19916;-79
2020/12/15 10:42:58;;;;;;;;;;;;;;;7.70;99.93;98413.34;5133104;28;19950;-78
2020/12/15 10:45:24;;;;;;;;;;;;;;;7.70;99.27;98423.63;5131932;28;19926;-78
2020/12/15 10:47:50;;;;;;;;;;;;;;;7.75;98.66;98416.63;5132544;28;19917;-79
2020/12/15 10:50:16;;;;;;;;;;;;;;;7.73;98.36;98414.13;5114622;28;19930;-78
2020/12/15 10:52:41;;;;;;;;;;;;;;;7.73;99.27;98411.56;5132415;28;19919;-79
2020/12/15 10:55:07;;;;;;;;;;;;;;;7.77;99.10;98414.84;5112570;28;19915;-79
2020/12/15 10:57:32;;;;;;;;;;;;;;;7.83;99.31;98409.53;5133759;28;19935;-79
2020/12/15 10:59:57;;;;;;;;;;;;;;;7.87;99.06;98411.13;5137278;27;19916;-79
2020/12/15 11:02:23;;;;;;;;;;;;;;;7.86;98.91;98406.88;5137602;27;19911;-79
2020/12/15 11:04:51;;;;;;;;;;;;;;;7.81;99.58;98410.47;5136262;27;19919;-78
2020/12/15 11:07:16;;;;;;;;;;;;;;;7.83;99.38;98404.41;5138075;27;19948;-78
2020/12/15 11:09:42;;;;;;;;;;;;;;;7.91;99.05;98402.47;5119177;27;19911;-79
2020/12/15 11:12:07;;;;;;;;;;;;;;;7.95;98.54;98411.72;5136681;27;19915;-78
2020/12/15 11:14:34;;;;;;;;;;;;;;;7.98;98.87;98408.22;5116165;27;19915;-79
2020/12/15 11:16:59;;;;;;;;;;;;;;;8.14;97.00;98408.59;5136091;27;19915;-78
2020/12/15 11:19:25;;;;;;;;;;;;;;;8.23;97.29;98410.84;5117707;27;19938;-78
2020/12/15 11:21:50;;;;;;;;;;;;;;;8.29;97.92;98408.09;5137620;27;19911;-78
2020/12/15 11:24:15;;;;;;;;;;;;;;;8.28;97.75;98411.56;5138432;27;19915;-78
2020/12/15 11:26:41;;;;;;;;;;;;;;;8.33;96.93;98401.16;5120699;27;19915;-79
2020/12/15 11:29:06;;;;;;;;;;;;;;;8.40;97.49;98409.50;5138542;27;19946;-78
2020/12/15 11:31:31;;;;;;;;;;;;;;;8.41;97.12;98411.19;5136278;27;19915;-79
2020/12/15 11:33:57;;;;;;;;;;;;;;;8.36;96.50;98419.00;5134967;27;19922;-79
2020/12/15 11:36:24;;;;;;;;;;;;;;;8.49;98.39;98415.19;5118031;27;20524;-78
2020/12/15 11:38:50;;;;;;;;;;;;;;;8.47;96.56;98416.13;5137611;27;19912;-78
2020/12/15 11:41:15;;;;;;;;;;;;;;;8.35;97.08;98418.16;5137862;27;19982;-78
2020/12/15 11:43:46;;;;;;;;;;;;;;;8.50;97.23;98427.13;5116686;27;19929;-77
2020/12/15 11:46:12;;;;;;;;;;;;;;;8.42;98.39;98430.84;5139806;27;20756;-77
2020/12/15 11:48:37;;;;;;;;;;;;;;;8.41;96.82;98424.03;5138737;27;19930;-78
2020/12/15 11:51:02;;;;;;;;;;;;;;;8.50;98.71;98426.28;5140533;27;19940;-78
2020/12/15 11:53:29;;;;;;;;;;;;;;;8.35;98.16;98433.56;5122754;27;20355;-78
2020/12/15 11:55:55;;;;;;;;;;;;;;;8.38;96.77;98438.59;5139652;27;19931;-78
2020/12/15 11:58:20;;;;;;;;;;;;;;;8.38;97.00;98438.59;5120801;27;19915;-78
2020/12/15 12:00:46;;;;;;;;;;;;;;;8.48;96.92;98431.47;5138891;27;19915;-78
2020/12/15 12:03:12;;;;;;;;;;;;;;;8.42;97.94;98436.81;5139648;27;19922;-78
2020/12/15 12:05:38;;;;;;;;;;;;;;;8.41;98.87;98437.69;5140676;27;19923;-78
2020/12/15 12:08:03;;;;;;;;;;;;;;;8.40;97.59;98440.28;5120828;27;19915;-78
2020/12/15 12:10:28;;;;;;;;;;;;;;;8.32;98.50;98433.66;5137564;27;19927;-78
2020/12/15 12:12:54;;;;;;;;;;;;;;;8.42;98.23;98443.69;5138695;27;20372;-77
2020/12/15 12:15:19;;;;;;;;;;;;;;;8.51;98.09;98443.38;5139431;27;20402;-77
2020/12/15 12:17:44;;;;;;;;;;;;;;;8.56;97.98;98439.75;5121444;27;19927;-78
2020/12/15 12:20:10;;;;;;;;;;;;;;;8.44;98.14;98444.44;5140552;27;20006;-79
2020/12/15 12:22:35;;;;;;;;;;;;;;;8.51;98.14;98448.50;5139691;27;19930;-79
2020/12/15 12:25:04;;;;;;;;;;;;;;;8.52;98.68;98439.91;5139544;27;19922;-78
2020/12/15 12:27:29;;;;;;;;;;;;;;;8.56;97.37;98446.63;5103732;27;19916;-79
2020/12/15 12:29:55;;;;;;;;;;;;;;;8.49;98.39;98440.84;5139866;27;19915;-79
2020/12/15 12:32:20;;;;;;;;;;;;;;;8.50;99.98;98449.38;5140048;27;20392;-79
2020/12/15 12:34:45;;;;;;;;;;;;;;;8.51;97.65;98448.50;5141669;27;19918;-79
2020/12/15 12:37:11;;;;;;;;;;;;;;;8.47;99.35;98457.19;5122928;27;19911;-79
2020/12/15 12:39:37;;;;;;;;;;;;;;;8.42;99.60;98465.03;5114000;27;20028;-79
2020/12/15 12:42:03;;;;;;;;;;;;;;;8.54;97.54;98458.66;5121953;27;19915;-78
2020/12/15 12:44:28;;;;;;;;;;;;;;;8.57;99.35;98468.81;5121681;27;19980;-79
2020/12/15 12:46:53;;;;;;;;;;;;;;;8.49;98.48;98476.78;5121797;27;20088;-80
2020/12/15 12:49:19;;;;;;;;;;;;;;;8.46;97.73;98478.59;5101176;27;19916;-78